Time;durP1;ratioP1;P1;durP2;ratioP2;P2;SDS_P1;SDS_P2;PMS_P1;PMS_P2;Temp;Humidity;BMP_temperature;BMP_pressure;BME280_temperature;BME280_humidity;BME280_pressure;Samples;Min_cycle;Max_cycle;Signal;HPM_P1;HPM_P2
2021/10/28 00:13:53;;;;;;;26.20;14.55;;;;;;;10.85;100.00;102011.31;5013442;28;20513;-78
2021/10/28 00:16:24;;;;;;;20.67;12.80;;;;;;;10.84;100.00;102006.88;5013592;28;20092;-77
2021/10/28 00:18:55;;;;;;;21.65;13.77;;;;;;;10.84;100.00;102009.50;5012330;28;20474;-79
2021/10/28 00:21:21;;;;;;;25.60;14.10;;;;;;;10.82;100.00;102000.69;5009301;28;20030;-78
2021/10/28 00:23:49;;;;;;;20.00;14.25;;;;;;;10.84;100.00;101999.88;5014780;28;20028;-77
2021/10/28 00:26:15;;;;;;;24.50;13.38;;;;;;;10.83;100.00;101997.22;5017763;28;20021;-77
2021/10/28 00:28:41;;;;;;;30.33;14.57;;;;;;;10.82;100.00;101993.66;5021587;28;20116;-77
2021/10/28 00:31:07;;;;;;;25.15;13.95;;;;;;;10.82;100.00;101993.66;5016327;28;20037;-77
2021/10/28 00:33:34;;;;;;;27.85;15.65;;;;;;;10.82;100.00;101984.88;5016354;28;20541;-77
2021/10/28 00:36:00;;;;;;;28.05;14.48;;;;;;;10.83;100.00;101981.41;5016324;28;20056;-77
2021/10/28 00:38:26;;;;;;;26.08;13.63;;;;;;;10.79;100.00;101983.91;5014676;28;20470;-78
2021/10/28 00:40:52;;;;;;;23.42;14.48;;;;;;;10.78;100.00;101982.16;5015759;28;20049;-78
2021/10/28 00:43:19;;;;;;;25.25;14.55;;;;;;;10.77;100.00;101982.97;5016209;28;20034;-78
2021/10/28 00:45:48;;;;;;;26.58;13.32;;;;;;;10.77;100.00;101980.34;5016515;28;20030;-77
2021/10/28 00:48:13;;;;;;;26.90;14.77;;;;;;;10.74;100.00;101980.25;5012082;28;20022;-77
2021/10/28 00:50:39;;;;;;;26.85;14.70;;;;;;;10.73;100.00;101981.09;5013582;28;20032;-78
2021/10/28 00:53:05;;;;;;;29.05;14.88;;;;;;;10.70;100.00;101973.09;5018602;28;20032;-78
2021/10/28 00:55:30;;;;;;;33.17;15.80;;;;;;;10.73;100.00;101978.47;5015015;28;20044;-78
2021/10/28 00:57:56;;;;;;;30.80;15.75;;;;;;;10.73;100.00;101981.09;5013820;28;20394;-78
2021/10/28 01:00:21;;;;;;;26.48;14.98;;;;;;;10.77;100.00;101976.81;5014143;28;20152;-77
2021/10/28 01:02:47;;;;;;;29.95;15.55;;;;;;;10.79;100.00;101978.66;5014190;28;20138;-77
2021/10/28 01:05:13;;;;;;;29.88;15.40;;;;;;;10.77;100.00;101979.44;5014351;28;21798;-78
2021/10/28 01:07:38;;;;;;;29.52;16.25;;;;;;;10.75;100.00;101979.38;5016883;28;20052;-78
2021/10/28 01:10:04;;;;;;;30.70;15.63;;;;;;;10.74;100.00;101982.88;5016343;28;20096;-77
2021/10/28 01:12:30;;;;;;;27.17;14.90;;;;;;;10.74;100.00;101972.34;5019278;28;20038;-77
2021/10/28 01:14:55;;;;;;;31.70;14.65;;;;;;;10.76;100.00;101975.91;5014321;28;20042;-76
2021/10/28 01:17:21;;;;;;;27.63;15.80;;;;;;;10.76;100.00;101970.66;5015144;28;20057;-77
2021/10/28 01:19:52;;;;;;;31.45;14.98;;;;;;;10.73;100.00;101965.28;5015396;28;20044;-77
2021/10/28 01:22:18;;;;;;;27.58;14.40;;;;;;;10.73;100.00;101965.28;5016248;28;20060;-78
2021/10/28 01:24:44;;;;;;;27.42;14.48;;;;;;;10.69;100.00;101968.66;5015690;28;20539;-78
2021/10/28 01:27:10;;;;;;;24.75;13.77;;;;;;;10.68;100.00;101963.34;5017566;28;20050;-78
2021/10/28 01:29:37;;;;;;;22.77;12.55;;;;;;;10.68;100.00;101964.22;5014972;28;20030;-78
2021/10/28 01:32:04;;;;;;;23.55;14.45;;;;;;;10.64;100.00;101954.44;5015362;28;20032;-79
2021/10/28 01:34:30;;;;;;;31.33;15.95;;;;;;;10.61;100.00;101955.22;5012172;28;20030;-78
2021/10/28 01:36:57;;;;;;;33.08;17.52;;;;;;;10.59;100.00;101961.28;5013650;28;20071;-78
2021/10/28 01:39:23;;;;;;;36.80;17.27;;;;;;;10.53;100.00;101961.09;5013507;28;20033;-77
2021/10/28 01:41:50;;;;;;;42.78;19.42;;;;;;;10.48;100.00;101962.66;5014334;28;20030;-78
2021/10/28 01:44:17;;;;;;;36.78;18.73;;;;;;;10.46;100.00;101955.59;5015842;28;20033;-77
2021/10/28 01:46:43;;;;;;;39.83;19.58;;;;;;;10.39;100.00;101950.06;5015191;28;20030;-77
2021/10/28 01:49:25;;;;;;;48.75;20.75;;;;;;;10.36;100.00;101948.22;5011832;28;20022;-76
2021/10/28 01:51:53;;;;;;;46.22;21.25;;;;;;;10.33;100.00;101944.56;5006166;28;20136;-77
2021/10/28 01:54:19;;;;;;;44.65;20.38;;;;;;;10.30;100.00;101940.09;5013675;28;20026;-77
2021/10/28 01:56:47;;;;;;;50.10;21.13;;;;;;;10.27;100.00;101943.50;5015843;28;20045;-78
2021/10/28 01:59:12;;;;;;;51.20;21.35;;;;;;;10.22;100.00;101933.66;5012656;28;20084;-77
2021/10/28 02:01:37;;;;;;;55.28;24.58;;;;;;;10.16;100.00;101938.69;5012271;28;20025;-78
2021/10/28 02:04:04;;;;;;;58.25;23.73;;;;;;;10.15;100.00;101942.16;5013694;28;20394;-78
2021/10/28 02:06:30;;;;;;;53.28;24.15;;;;;;;10.14;100.00;101946.53;5015162;28;20067;-78
2021/10/28 02:08:55;;;;;;;61.20;23.88;;;;;;;10.12;100.00;101937.69;5014763;28;20104;-78
2021/10/28 02:11:21;;;;;;;62.13;24.05;;;;;;;10.10;100.00;101935.00;5012755;28;20034;-78
2021/10/28 02:13:46;;;;;;;58.78;25.48;;;;;;;10.08;100.00;101930.53;5013352;28;20109;-79
2021/10/28 02:16:12;;;;;;;45.97;22.17;;;;;;;10.05;100.00;101935.66;5013731;28;20037;-78
2021/10/28 02:18:37;;;;;;;51.25;23.67;;;;;;;10.05;100.00;101931.31;5013253;28;20077;-78
2021/10/28 02:21:02;;;;;;;52.47;23.48;;;;;;;10.05;100.00;101927.78;5015911;28;20537;-78
2021/10/28 02:23:28;;;;;;;62.80;26.23;;;;;;;10.05;100.00;101927.78;5014441;28;20112;-79
2021/10/28 02:25:53;;;;;;;62.63;26.40;;;;;;;10.03;100.00;101927.72;5014766;28;20081;-78
2021/10/28 02:28:18;;;;;;;50.88;23.73;;;;;;;9.99;100.00;101931.09;5015384;28;20037;-77
2021/10/28 02:30:44;;;;;;;46.22;20.58;;;;;;;9.98;100.00;101929.28;5014995;28;20034;-77
2021/10/28 02:33:09;;;;;;;36.92;18.73;;;;;;;9.96;100.00;101925.72;5012637;28;20569;-79
2021/10/28 02:35:35;;;;;;;33.08;18.17;;;;;;;9.99;100.00;101927.56;5014734;28;20036;-77
2021/10/28 02:38:01;;;;;;;35.50;19.10;;;;;;;9.98;100.00;101917.88;5014861;28;20032;-78
2021/10/28 02:40:28;;;;;;;34.25;17.20;;;;;;;9.96;100.00;101920.47;5012814;28;20049;-78
2021/10/28 02:42:53;;;;;;;35.45;18.27;;;;;;;9.93;100.00;101910.72;5014563;28;20034;-79
2021/10/28 02:45:19;;;;;;;33.05;17.65;;;;;;;9.91;100.00;101908.88;5014074;28;20516;-78
2021/10/28 02:47:44;;;;;;;34.35;17.13;;;;;;;9.88;100.00;101906.16;5012492;28;20045;-78
2021/10/28 02:50:10;;;;;;;33.05;17.10;;;;;;;9.89;100.00;101902.66;5009590;28;20026;-75
2021/10/28 02:52:35;;;;;;;34.90;18.52;;;;;;;9.88;100.00;101900.88;5014424;28;20041;-77
2021/10/28 02:55:03;;;;;;;32.42;16.70;;;;;;;9.86;100.00;101906.09;5014365;28;20034;-77
2021/10/28 02:57:29;;;;;;;30.58;16.92;;;;;;;9.82;100.00;101898.03;5014653;28;20101;-78
2021/10/28 02:59:54;;;;;;;37.95;17.30;;;;;;;9.81;100.00;101901.47;5013527;28;20160;-78
2021/10/28 03:02:19;;;;;;;34.00;16.67;;;;;;;9.78;100.00;101897.91;5010497;28;20053;-78
2021/10/28 03:04:45;;;;;;;32.00;17.10;;;;;;;9.77;100.00;101888.22;5012160;28;20042;-78
2021/10/28 03:07:10;;;;;;;32.80;16.73;;;;;;;9.77;100.00;101893.50;5006886;28;20105;-76
2021/10/28 03:09:35;;;;;;;37.42;16.67;;;;;;;9.76;100.00;101890.81;5014005;28;20113;-78
2021/10/28 03:12:03;;;;;;;37.38;17.88;;;;;;;9.76;100.00;101888.19;5011736;28;20034;-79
2021/10/28 03:14:40;;;;;;;31.13;17.83;;;;;;;9.73;100.00;101885.44;5013991;28;20537;-77
2021/10/28 03:17:30;;;;;;;34.20;17.50;;;;;;;9.72;100.00;101883.66;4995650;28;20030;-78
2021/10/28 03:27:51;;;;;;;33.83;16.52;;;;;;;9.69;100.00;101875.66;5014101;28;20095;-77
2021/10/28 03:30:17;;;;;;;30.70;18.13;;;;;;;9.64;100.00;101867.59;5013744;28;20053;-77
2021/10/28 03:32:42;;;;;;;29.20;17.05;;;;;;;9.66;100.00;101862.38;5011916;28;20452;-76
2021/10/28 03:35:11;;;;;;;25.08;15.65;;;;;;;9.66;100.00;101865.94;5012426;28;20105;-76
2021/10/28 03:37:44;;;;;;;28.00;17.27;;;;;;;9.64;100.00;101870.22;5013498;28;20042;-79
2021/10/28 03:57:13;;;;;;;28.23;16.15;;;;;;;9.50;100.00;101853.06;4993830;28;20038;-78
2021/10/28 04:29:38;;;;;;;31.23;16.35;;;;;;;9.32;100.00;101832.25;5015539;28;20585;-79
2021/10/28 04:32:03;;;;;;;26.50;15.45;;;;;;;9.30;100.00;101832.19;5011241;28;20030;-77
2021/10/28 04:34:29;;;;;;;26.48;15.70;;;;;;;9.32;100.00;101824.34;5011849;28;20038;-78
2021/10/28 04:36:54;;;;;;;27.30;15.48;;;;;;;9.31;100.00;101828.72;5017130;28;20056;-78
2021/10/28 04:39:20;;;;;;;24.55;15.38;;;;;;;9.31;100.00;101839.22;5015374;28;20104;-77
2021/10/28 04:41:46;;;;;;;29.45;16.27;;;;;;;9.30;100.00;101829.56;5017029;28;20025;-77
2021/10/28 04:44:12;;;;;;;27.75;15.45;;;;;;;9.32;100.00;101830.53;5017388;28;20053;-79
2021/10/28 04:46:41;;;;;;;28.83;16.15;;;;;;;9.31;100.00;101817.34;5014399;28;20029;-77
2021/10/28 04:49:06;;;;;;;22.75;15.45;;;;;;;9.30;100.00;101816.44;5014199;28;20041;-79
2021/10/28 04:51:32;;;;;;;27.92;15.15;;;;;;;9.28;100.00;101818.13;5015210;28;20500;-78
2021/10/28 04:53:57;;;;;;;25.17;15.57;;;;;;;9.25;100.00;101815.34;5018137;28;20103;-79
2021/10/28 04:56:23;;;;;;;25.55;14.57;;;;;;;9.28;100.00;101823.38;5013941;28;20034;-76
2021/10/28 04:58:48;;;;;;;25.95;14.57;;;;;;;9.27;100.00;101821.56;5015580;28;20033;-78
2021/10/28 05:01:14;;;;;;;39.88;14.82;;;;;;;9.23;100.00;101814.41;5011007;28;20033;-78
2021/10/28 05:03:40;;;;;;;28.17;15.10;;;;;;;9.20;100.00;101819.56;5016672;28;20038;-78
2021/10/28 05:06:05;;;;;;;27.52;14.77;;;;;;;9.18;100.00;101822.09;5012210;28;20426;-78
2021/10/28 05:08:33;;;;;;;25.67;14.38;;;;;;;9.17;100.00;101824.66;5013098;28;20040;-77
2021/10/28 05:10:58;;;;;;;28.80;14.88;;;;;;;9.12;100.00;101827.13;5013182;28;20080;-77
2021/10/28 05:13:24;;;;;;;24.42;15.60;;;;;;;9.07;100.00;101823.44;5011500;28;20018;-76
2021/10/28 05:15:51;;;;;;;28.90;14.95;;;;;;;9.05;100.00;101827.75;5013697;28;20040;-79
2021/10/28 05:18:20;;;;;;;28.73;15.75;;;;;;;9.04;100.00;101833.81;5013915;28;20026;-76
2021/10/28 05:20:46;;;;;;;28.15;14.38;;;;;;;9.02;100.00;101836.41;5021484;28;20129;-77
2021/10/28 05:23:11;;;;;;;24.67;13.93;;;;;;;9.02;100.00;101820.66;5014945;28;20098;-79
2021/10/28 05:25:37;;;;;;;26.13;12.98;;;;;;;9.00;100.00;101822.31;5012117;28;20394;-78
2021/10/28 05:28:03;;;;;;;25.05;13.77;;;;;;;8.99;100.00;101820.50;5015537;28;20100;-80
2021/10/28 05:30:29;;;;;;;26.30;14.70;;;;;;;8.96;100.00;101820.38;5015494;28;20034;-78
2021/10/28 05:32:56;;;;;;;24.30;13.90;;;;;;;8.95;100.00;101818.59;5015750;28;20026;-79
2021/10/28 05:35:21;;;;;;;23.05;14.85;;;;;;;8.93;100.00;101818.53;5013582;28;20119;-79
2021/10/28 05:37:47;;;;;;;23.50;14.32;;;;;;;8.92;100.00;101822.00;5015391;28;20029;-80
2021/10/28 05:40:13;;;;;;;22.08;13.68;;;;;;;8.90;100.00;101814.91;5015027;28;20037;-80
2021/10/28 05:42:43;;;;;;;24.02;13.85;;;;;;;8.90;100.00;101804.41;5013555;28;20080;-79
2021/10/28 05:45:09;;;;;;;27.65;14.93;;;;;;;8.90;100.00;101812.28;5016336;28;20486;-80
2021/10/28 05:47:34;;;;;;;23.88;14.13;;;;;;;8.90;100.00;101809.66;5023687;28;20021;-81
2021/10/28 05:50:00;;;;;;;27.35;14.27;;;;;;;8.87;100.00;101814.78;5016373;28;20034;-80
2021/10/28 05:52:25;;;;;;;28.23;14.52;;;;;;;8.85;100.00;101809.47;5017649;28;20044;-79
2021/10/28 05:54:51;;;;;;;29.70;15.38;;;;;;;8.84;100.00;101812.03;5019097;28;20029;-70
2021/10/28 05:57:16;;;;;;;26.88;14.88;;;;;;;8.80;100.00;101813.63;5018068;28;20112;-80
2021/10/28 05:59:41;;;;;;;25.67;13.88;;;;;;;8.76;100.00;101810.03;5010238;28;20053;-81
2021/10/28 06:02:07;;;;;;;24.75;13.70;;;;;;;8.73;100.00;101806.38;5013326;28;20056;-82
2021/10/28 06:04:32;;;;;;;27.15;13.60;;;;;;;8.70;100.00;101807.13;5025390;28;20076;-80
2021/10/28 06:06:58;;;;;;;26.52;14.73;;;;;;;8.68;100.00;101808.81;5015479;28;20034;-79
2021/10/28 06:09:23;;;;;;;22.70;14.77;;;;;;;8.66;100.00;101810.47;5015852;28;20034;-78
2021/10/28 06:11:48;;;;;;;25.75;14.20;;;;;;;8.63;100.00;101807.75;5010664;28;20030;-78
2021/10/28 06:14:21;;;;;;;24.08;15.00;;;;;;;8.62;100.00;101808.56;5013845;28;20021;-78
2021/10/28 06:16:51;;;;;;;24.60;13.82;;;;;;;8.60;100.00;101805.00;5021769;28;20030;-79
2021/10/28 06:19:16;;;;;;;22.77;13.02;;;;;;;8.60;100.00;101805.88;5013844;28;20032;-77
2021/10/28 06:21:42;;;;;;;27.13;14.15;;;;;;;8.60;100.00;101799.75;5018560;28;20045;-79
2021/10/28 06:24:07;;;;;;;27.40;14.93;;;;;;;8.62;100.00;101803.31;5026056;28;20091;-78
2021/10/28 06:26:32;;;;;;;26.23;13.80;;;;;;;8.64;100.00;101803.38;5014278;28;20431;-79
2021/10/28 06:28:58;;;;;;;22.85;12.93;;;;;;;8.65;100.00;101792.94;5016073;28;20045;-80
2021/10/28 06:31:23;;;;;;;21.92;13.07;;;;;;;8.67;100.00;101791.28;5019759;28;20078;-81
2021/10/28 06:33:54;;;;;;;22.15;12.07;;;;;;;8.72;100.00;101795.00;5017225;28;20026;-80
2021/10/28 06:36:23;;;;;;;24.25;14.18;;;;;;;8.75;100.00;101789.84;5016361;28;20033;-79
2021/10/28 06:38:48;;;;;;;24.92;12.57;;;;;;;8.82;100.00;101790.06;5019887;28;20022;-79
2021/10/28 06:41:14;;;;;;;22.20;12.77;;;;;;;8.82;100.00;101785.75;5015148;28;20037;-79
2021/10/28 06:43:40;;;;;;;24.77;12.55;;;;;;;8.85;100.00;101788.47;5015675;28;20518;-78
2021/10/28 06:46:05;;;;;;;19.65;11.48;;;;;;;8.88;100.00;101782.44;5010654;28;20076;-79
2021/10/28 06:48:31;;;;;;;22.48;12.40;;;;;;;8.92;100.00;101776.50;5015746;28;20033;-79
2021/10/28 06:50:58;;;;;;;17.25;12.13;;;;;;;8.97;100.00;101789.78;5015134;28;20436;-76
2021/10/28 06:53:25;;;;;;;19.35;11.70;;;;;;;8.98;100.00;101775.81;5014705;28;20465;-79
2021/10/28 07:03:57;;;;;;;20.15;10.70;;;;;;;9.11;100.00;101773.75;5019236;28;20104;-79
2021/10/28 07:06:25;;;;;;;19.48;11.95;;;;;;;9.17;100.00;101773.06;5017040;28;20037;-78
2021/10/28 07:11:39;;;;;;;18.65;11.00;;;;;;;9.23;100.00;101772.41;5016247;28;20072;-78
2021/10/28 07:14:07;;;;;;;17.73;10.82;;;;;;;9.27;100.00;101771.66;5027922;28;20014;-78
2021/10/28 07:24:55;;;;;;;17.05;10.15;;;;;;;9.49;100.00;101769.81;4998201;28;20049;-78
2021/10/28 07:57:35;;;;;;;11.13;8.30;;;;;;;10.16;100.00;101723.94;5023164;28;20128;-79
2021/10/28 08:18:55;;;;;;;12.57;7.32;;;;;;;10.78;100.00;101700.44;5016654;28;20080;-80
2021/10/28 08:29:21;;;;;;;18.80;7.78;;;;;;;11.12;98.80;101690.88;5006889;28;20034;-80
2021/10/28 08:31:51;;;;;;;13.43;7.70;;;;;;;11.22;97.94;101685.88;5016708;28;20116;-80
2021/10/28 08:34:29;;;;;;;13.35;7.68;;;;;;;11.28;97.32;101683.38;5017979;28;20018;-79
2021/10/28 08:36:56;;;;;;;14.23;8.40;;;;;;;11.34;97.29;101683.56;5021641;28;20064;-78
2021/10/28 08:39:22;;;;;;;14.68;8.13;;;;;;;11.42;96.51;101684.66;5019077;28;20045;-80
2021/10/28 08:41:48;;;;;;;17.75;7.63;;;;;;;11.54;96.23;101683.19;5032670;28;20029;-78
2021/10/28 08:44:17;;;;;;;12.10;7.57;;;;;;;11.63;95.89;101673.75;5020453;28;20111;-78
2021/10/28 08:46:45;;;;;;;17.00;8.60;;;;;;;11.79;94.98;101674.16;5031738;28;20052;-76
2021/10/28 08:49:33;;;;;;;11.30;7.15;;;;;;;11.93;94.57;101667.47;5018790;28;20026;-78
2021/10/28 09:19:38;;;;;;;11.20;6.97;;;;;;;14.64;78.94;101606.38;5031926;28;20103;-79
2021/10/28 09:25:03;;;;;;;15.77;7.53;;;;;;;14.88;77.58;101599.56;5020379;28;20088;-78
2021/10/28 09:28:02;;;;;;;10.50;6.10;;;;;;;14.98;76.72;101596.16;5017361;28;20037;-79
2021/10/28 09:30:50;;;;;;;10.90;6.20;;;;;;;15.07;76.65;101590.94;5006883;28;20031;-78
2021/10/28 09:33:35;;;;;;;10.45;6.78;;;;;;;15.09;75.92;101589.19;5010265;28;20414;-78
2021/10/28 09:45:05;;;;;;;9.95;5.80;;;;;;;15.69;74.66;101572.88;5003903;28;20549;-78
2021/10/28 09:47:43;;;;;;;9.68;6.45;;;;;;;15.88;73.86;101570.41;5023354;28;20031;-78
2021/10/28 09:50:16;;;;;;;12.93;6.78;;;;;;;15.99;71.85;101569.59;5011462;28;20025;-79
2021/10/28 09:52:55;;;;;;;8.68;5.78;;;;;;;16.20;71.13;101562.63;5023837;28;20029;-79
2021/10/28 09:58:25;;;;;;;8.48;6.25;;;;;;;16.61;69.71;101563.66;5018818;28;20060;-79
2021/10/28 10:00:51;;;;;;;8.48;5.57;;;;;;;16.81;69.62;101561.94;5021476;28;20026;-79
2021/10/28 10:03:25;;;;;;;11.68;6.35;;;;;;;17.05;68.18;101549.63;5015599;28;20090;-78
2021/10/28 10:05:56;;;;;;;7.60;5.90;;;;;;;17.36;66.07;101550.50;5025156;28;20030;-79
2021/10/28 10:08:24;;;;;;;11.15;6.47;;;;;;;17.67;65.80;101549.59;5019154;28;20040;-79
2021/10/28 10:10:50;;;;;;;13.27;6.18;;;;;;;17.93;64.78;101544.22;5023147;28;20038;-78
2021/10/28 10:13:16;;;;;;;10.25;6.07;;;;;;;18.23;62.87;101541.47;5013560;28;20041;-78
2021/10/28 10:15:42;;;;;;;9.52;5.60;;;;;;;18.41;62.22;101537.84;5012684;28;20470;-77
2021/10/28 10:18:13;;;;;;;8.60;6.10;;;;;;;18.46;60.62;101525.38;5017886;28;20025;-79
2021/10/28 10:20:48;;;;;;;11.70;5.80;;;;;;;18.50;60.39;101533.38;5026843;28;20053;-80
2021/10/28 12:45:50;;;;;;;7.88;5.03;;;;;;;22.84;44.17;101324.25;5023194;28;20045;-79
2021/10/28 12:56:43;;;;;;;7.25;4.70;;;;;;;22.46;44.27;101292.13;5024569;28;20049;-78
2021/10/28 13:02:47;;;;;;;7.25;4.97;;;;;;;20.43;48.74;101287.50;5022141;28;20045;-78
2021/10/28 13:38:10;;;;;;;9.23;5.07;;;;;;;17.97;58.84;101297.47;5015411;28;20088;-78
2021/10/28 13:51:48;;;;;;;9.05;4.65;;;;;;;18.83;55.77;101275.41;5015124;28;20044;-79
2021/10/28 13:57:50;;;;;;;11.32;5.32;;;;;;;18.53;56.98;101274.81;5015762;28;20065;-78
2021/10/28 14:29:41;;;;;;;;;;;;;;;17.91;60.25;101260.22;5015815;28;20049;-80
2021/10/28 15:36:37;;;;;;;12.40;4.05;;;;;;;16.16;67.64;101228.94;5012689;28;20512;-74
2021/10/28 15:50:22;;;;;;;7.18;3.85;;;;;;;15.83;68.93;101228.94;5015849;28;20072;-81
2021/10/28 16:00:29;;;;;;;6.63;3.75;;;;;;;15.62;69.80;101210.28;5010502;28;20037;-79
2021/10/28 16:22:04;;;;;;;6.95;3.38;;;;;;;15.08;72.52;101199.53;5016633;28;20286;-78
2021/10/28 16:24:33;;;;;;;7.32;3.88;;;;;;;15.01;72.98;101198.63;5015564;28;20088;-77
2021/10/28 16:27:02;;;;;;;5.90;3.70;;;;;;;14.95;73.05;101193.31;5019554;28;20046;-76
2021/10/28 16:29:28;;;;;;;7.43;4.15;;;;;;;14.88;73.81;101184.47;5016168;28;20060;-78
2021/10/28 16:31:54;;;;;;;12.95;5.13;;;;;;;14.79;74.77;101185.28;5026042;28;20121;-77
2021/10/28 16:34:20;;;;;;;7.65;4.15;;;;;;;14.73;74.71;101179.97;5018787;28;20022;-77
2021/10/28 16:36:48;;;;;;;6.88;4.15;;;;;;;14.66;74.89;101178.16;5015440;28;20444;-78
2021/10/28 16:39:15;;;;;;;8.20;4.40;;;;;;;14.63;75.39;101180.78;5019273;28;20036;-77
2021/10/28 16:41:43;;;;;;;9.70;4.65;;;;;;;14.58;75.74;101182.50;5021072;28;20053;-78
2021/10/28 16:44:09;;;;;;;9.75;4.68;;;;;;;14.52;76.03;101180.69;5020509;28;20425;-77
2021/10/28 16:46:36;;;;;;;9.20;5.28;;;;;;;14.46;76.60;101188.59;5028037;28;20030;-75
2021/10/28 16:49:02;;;;;;;11.05;5.00;;;;;;;14.41;76.88;101179.75;5024621;28;20025;-81
2021/10/28 16:51:27;;;;;;;6.55;5.25;;;;;;;14.35;77.37;101180.59;5016073;28;20037;-78
2021/10/28 16:53:53;;;;;;;8.32;5.15;;;;;;;14.31;77.65;101189.38;5019204;28;20021;-79
2021/10/28 16:56:19;;;;;;;8.45;4.53;;;;;;;14.26;77.88;101186.72;5019496;28;20022;-75
2021/10/28 16:58:44;;;;;;;9.43;4.90;;;;;;;14.21;78.14;101185.78;5020957;28;20017;-79
2021/10/28 17:01:10;;;;;;;8.38;4.60;;;;;;;14.16;78.44;101185.78;5016990;28;20499;-77
2021/10/28 17:03:36;;;;;;;8.05;4.95;;;;;;;14.13;78.39;101188.41;5020140;28;20045;-80
2021/10/28 17:06:02;;;;;;;6.63;4.72;;;;;;;14.07;78.64;101185.72;5025115;28;20036;-79
2021/10/28 17:08:29;;;;;;;7.50;5.00;;;;;;;14.02;79.04;101181.25;5020287;28;20041;-71
2021/10/28 17:10:55;;;;;;;8.63;4.85;;;;;;;13.94;79.40;101190.00;5016289;28;20117;-80
2021/10/28 17:13:21;;;;;;;8.98;4.82;;;;;;;13.90;79.86;101184.69;5026373;28;20097;-81
2021/10/28 17:15:46;;;;;;;9.70;5.40;;;;;;;13.85;79.86;101175.81;5029636;28;20123;-78
2021/10/28 17:18:12;;;;;;;7.78;4.90;;;;;;;13.79;80.11;101174.88;5013210;28;20029;-79
2021/10/28 17:20:37;;;;;;;7.65;5.05;;;;;;;13.73;80.30;101180.13;5022703;28;20466;-81
2021/10/28 17:23:04;;;;;;;8.13;4.90;;;;;;;13.67;80.70;101177.41;5015954;28;20549;-81
2021/10/28 17:25:32;;;;;;;6.97;4.82;;;;;;;13.63;80.71;101175.63;5017972;28;20502;-79
2021/10/28 17:27:58;;;;;;;9.02;4.60;;;;;;;13.58;80.75;101169.41;5011246;28;20149;-81
2021/10/28 17:30:23;;;;;;;5.88;4.28;;;;;;;13.53;80.80;101166.72;5018686;28;20502;-80
2021/10/28 17:32:49;;;;;;;5.93;4.72;;;;;;;13.47;81.03;101167.56;5016973;28;20021;-81
2021/10/28 17:35:14;;;;;;;7.65;4.53;;;;;;;13.45;80.99;101169.28;5019784;28;20462;-79
2021/10/28 17:37:40;;;;;;;10.77;4.43;;;;;;;13.40;81.14;101171.03;5016092;28;20030;-80
2021/10/28 17:40:07;;;;;;;7.80;4.97;;;;;;;13.37;81.14;101170.09;5016919;28;20040;-78
2021/10/28 17:42:34;;;;;;;7.70;4.43;;;;;;;13.32;81.56;101167.34;5014289;28;20026;-79
2021/10/28 17:45:01;;;;;;;7.93;4.25;;;;;;;13.29;81.55;101168.22;5014676;28;20034;-82
2021/10/28 17:47:27;;;;;;;7.57;4.07;;;;;;;13.25;81.96;101165.53;5017048;28;20053;-79
2021/10/28 17:49:53;;;;;;;5.85;4.25;;;;;;;13.23;81.64;101162.00;5012771;28;20057;-79
2021/10/28 17:52:18;;;;;;;10.98;4.20;;;;;;;13.22;81.64;101170.78;5019084;28;20398;-80
2021/10/28 17:54:45;;;;;;;8.27;4.35;;;;;;;13.22;81.55;101170.78;5032500;28;20029;-78
2021/10/28 17:57:12;;;;;;;9.07;4.63;;;;;;;13.22;81.21;101170.78;5018998;28;20026;-81
2021/10/28 17:59:38;;;;;;;8.18;4.32;;;;;;;13.18;81.60;101163.69;5014568;28;20105;-80
2021/10/28 18:02:04;;;;;;;8.23;4.50;;;;;;;13.16;81.53;101159.28;5013716;28;20149;-78
2021/10/28 18:04:31;;;;;;;7.85;4.30;;;;;;;13.15;81.43;101170.69;5030708;28;20560;-80
2021/10/28 18:06:56;;;;;;;6.10;4.22;;;;;;;13.11;82.19;101174.19;5015043;28;20362;-80
2021/10/28 18:09:24;;;;;;;7.72;4.63;;;;;;;13.10;81.98;101175.06;5018874;28;20040;-81
2021/10/28 18:11:54;;;;;;;9.82;4.10;;;;;;;13.10;82.03;101176.81;5015222;28;20113;-79
2021/10/28 18:14:21;;;;;;;6.28;4.25;;;;;;;13.07;82.32;101175.00;5018315;28;20022;-79
2021/10/28 18:16:46;;;;;;;6.47;4.70;;;;;;;13.03;82.58;101165.28;5022645;28;20032;-79
2021/10/28 18:19:13;;;;;;;6.22;4.25;;;;;;;12.98;83.08;101169.63;5010654;28;20033;-77
2021/10/28 18:21:41;;;;;;;9.27;5.05;;;;;;;12.92;83.27;101166.91;5016948;28;20029;-79
2021/10/28 18:24:07;;;;;;;8.48;4.65;;;;;;;12.87;83.51;101166.84;5014473;28;20109;-79
2021/10/28 18:26:32;;;;;;;9.32;4.75;;;;;;;12.78;83.65;101157.06;5014848;28;20420;-79
2021/10/28 18:28:58;;;;;;;7.10;4.65;;;;;;;12.74;84.08;101163.19;5013033;28;20086;-78
2021/10/28 18:31:26;;;;;;;7.55;4.63;;;;;;;12.68;83.93;101168.38;5013990;28;20056;-78
2021/10/28 18:33:51;;;;;;;13.85;4.93;;;;;;;12.62;84.47;101169.19;5026722;28;20017;-81
2021/10/28 18:36:17;;;;;;;9.52;5.35;;;;;;;12.55;84.66;101155.91;5026178;28;20036;-79
2021/10/28 18:38:45;;;;;;;7.47;5.00;;;;;;;12.51;85.09;101160.25;5012515;28;20052;-80
2021/10/28 18:41:12;;;;;;;7.88;5.47;;;;;;;12.44;85.49;101164.53;5013236;28;20030;-80
2021/10/28 18:43:37;;;;;;;13.52;5.43;;;;;;;12.43;85.24;101162.75;5013507;28;20061;-81
2021/10/28 18:46:03;;;;;;;8.90;6.35;;;;;;;12.38;85.94;101161.81;5019742;28;20502;-77
2021/10/28 18:48:28;;;;;;;13.63;6.22;;;;;;;12.31;86.04;101160.81;5010593;28;20112;-78
2021/10/28 18:50:54;;;;;;;7.68;5.60;;;;;;;12.26;86.53;101159.00;5012190;28;20026;-79
2021/10/28 18:53:20;;;;;;;8.00;6.20;;;;;;;12.20;86.91;101157.16;5021574;28;20056;-79
2021/10/28 18:55:45;;;;;;;9.00;5.80;;;;;;;12.16;87.15;101160.63;5018024;28;20022;-79
2021/10/28 18:58:10;;;;;;;7.93;6.10;;;;;;;12.13;87.24;101152.66;5012119;28;20030;-80
2021/10/28 19:00:37;;;;;;;9.07;6.30;;;;;;;12.11;87.82;101160.56;5014378;28;20504;-81
2021/10/28 19:03:02;;;;;;;11.27;6.47;;;;;;;12.06;88.28;101163.97;5012350;28;20144;-79
2021/10/28 19:05:29;;;;;;;14.80;6.55;;;;;;;12.05;88.86;101164.84;5014119;28;20531;-79
2021/10/28 19:07:55;;;;;;;9.88;6.03;;;;;;;12.00;88.40;101170.03;5012026;28;20484;-80
2021/10/28 19:10:20;;;;;;;11.38;6.13;;;;;;;11.96;88.86;101165.56;5012015;28;20022;-79
2021/10/28 19:12:46;;;;;;;8.30;6.38;;;;;;;11.91;89.16;101161.94;5014617;28;20032;-78
2021/10/28 19:15:14;;;;;;;8.05;6.20;;;;;;;11.86;89.60;101153.97;5011971;28;20030;-79
2021/10/28 19:17:42;;;;;;;10.18;5.88;;;;;;;11.84;89.89;101160.94;5008684;28;20442;-79
2021/10/28 19:20:09;;;;;;;9.07;5.85;;;;;;;11.86;90.20;101153.09;5008191;28;20108;-79
2021/10/28 19:22:34;;;;;;;9.10;6.13;;;;;;;11.89;90.13;101158.41;5009031;28;20041;-81
2021/10/28 19:25:05;;;;;;;13.93;6.00;;;;;;;11.91;90.04;101144.38;5026690;28;20032;-80
2021/10/28 19:27:30;;;;;;;7.80;5.30;;;;;;;11.96;90.10;101144.47;5006419;28;20528;-77
2021/10/28 19:30:02;;;;;;;10.43;5.93;;;;;;;12.01;89.91;101144.56;5014234;28;20022;-79
2021/10/28 19:32:28;;;;;;;8.95;5.53;;;;;;;12.05;89.79;101139.34;5016107;28;20028;-79
2021/10/28 19:34:55;;;;;;;12.13;6.30;;;;;;;12.09;90.11;101146.44;5018549;28;20057;-79
2021/10/28 19:38:04;;;;;;;10.73;5.65;;;;;;;12.14;89.63;101143.88;5016459;28;20498;-79
2021/10/28 19:47:47;;;;;;;12.30;5.63;;;;;;;12.24;89.16;101135.22;5018580;28;20038;-79
2021/10/28 19:50:13;;;;;;;6.75;5.68;;;;;;;12.24;89.20;101129.06;5013187;28;20819;-78
2021/10/28 19:52:40;;;;;;;8.85;6.43;;;;;;;12.20;89.33;101127.25;5019621;28;20026;-81
2021/10/28 19:55:07;;;;;;;8.13;5.93;;;;;;;12.17;89.74;101128.09;5023166;28;20021;-79
2021/10/28 19:57:36;;;;;;;9.38;6.28;;;;;;;12.21;89.06;101129.91;5020763;28;20029;-79
2021/10/28 20:00:16;;;;;;;8.68;5.97;;;;;;;12.21;88.76;101124.63;5016571;28;20390;-80
2021/10/28 20:21:27;;;;;;;11.35;5.15;;;;;;;12.42;86.42;101102.91;5016291;28;20080;-79